sensor_id;sensor_type;location;lat;lon;timestamp;P1;durP1;ratioP1;P2;durP2;ratioP2
54464;SDS011;40374;49.480;20.016;2023-02-15T00:01:36;44.83;;;19.70;;
54464;SDS011;40374;49.480;20.016;2023-02-15T00:04:07;53.75;;;24.80;;
54464;SDS011;40374;49.480;20.016;2023-02-15T00:06:35;45.88;;;22.08;;
54464;SDS011;40374;49.480;20.016;2023-02-15T00:09:04;101.57;;;40.92;;
54464;SDS011;40374;49.480;20.016;2023-02-15T00:11:31;141.07;;;56.45;;
54464;SDS011;40374;49.480;20.016;2023-02-15T00:16:35;194.02;;;74.22;;
54464;SDS011;40374;49.480;20.016;2023-02-15T00:19:03;230.63;;;94.13;;
54464;SDS011;40374;49.480;20.016;2023-02-15T00:21:31;249.48;;;100.10;;
54464;SDS011;40374;49.480;20.016;2023-02-15T00:23:59;269.95;;;108.00;;
54464;SDS011;40374;49.480;20.016;2023-02-15T00:26:27;269.35;;;107.03;;
54464;SDS011;40374;49.480;20.016;2023-02-15T00:28:55;272.40;;;114.75;;
54464;SDS011;40374;49.480;20.016;2023-02-15T00:31:22;273.70;;;109.78;;
54464;SDS011;40374;49.480;20.016;2023-02-15T00:33:50;246.63;;;97.28;;
54464;SDS011;40374;49.480;20.016;2023-02-15T00:36:17;235.25;;;97.25;;
54464;SDS011;40374;49.480;20.016;2023-02-15T00:38:49;236.65;;;96.85;;
54464;SDS011;40374;49.480;20.016;2023-02-15T00:41:16;219.60;;;89.63;;
54464;SDS011;40374;49.480;20.016;2023-02-15T00:43:43;201.25;;;80.97;;
54464;SDS011;40374;49.480;20.016;2023-02-15T00:46:11;196.50;;;78.40;;
54464;SDS011;40374;49.480;20.016;2023-02-15T00:48:38;171.82;;;70.07;;
54464;SDS011;40374;49.480;20.016;2023-02-15T00:51:06;201.05;;;81.05;;
54464;SDS011;40374;49.480;20.016;2023-02-15T00:53:33;210.43;;;83.07;;
54464;SDS011;40374;49.480;20.016;2023-02-15T00:56:01;183.27;;;76.28;;
54464;SDS011;40374;49.480;20.016;2023-02-15T00:58:29;164.30;;;65.40;;
54464;SDS011;40374;49.480;20.016;2023-02-15T01:01:01;178.90;;;69.80;;
54464;SDS011;40374;49.480;20.016;2023-02-15T01:03:29;147.70;;;62.08;;
54464;SDS011;40374;49.480;20.016;2023-02-15T01:05:56;134.95;;;58.55;;
54464;SDS011;40374;49.480;20.016;2023-02-15T01:08:26;124.53;;;49.63;;
54464;SDS011;40374;49.480;20.016;2023-02-15T01:10:53;117.72;;;47.28;;
54464;SDS011;40374;49.480;20.016;2023-02-15T01:13:20;118.78;;;46.58;;
54464;SDS011;40374;49.480;20.016;2023-02-15T01:15:54;108.95;;;42.45;;
54464;SDS011;40374;49.480;20.016;2023-02-15T01:18:22;92.63;;;40.63;;
54464;SDS011;40374;49.480;20.016;2023-02-15T01:20:49;84.95;;;35.03;;
54464;SDS011;40374;49.480;20.016;2023-02-15T01:23:16;122.15;;;46.70;;
54464;SDS011;40374;49.480;20.016;2023-02-15T01:25:45;112.05;;;46.88;;
54464;SDS011;40374;49.480;20.016;2023-02-15T01:28:12;99.03;;;45.58;;
54464;SDS011;40374;49.480;20.016;2023-02-15T01:30:39;119.13;;;47.53;;
54464;SDS011;40374;49.480;20.016;2023-02-15T01:33:08;103.95;;;43.33;;
54464;SDS011;40374;49.480;20.016;2023-02-15T01:35:45;114.68;;;45.30;;
54464;SDS011;40374;49.480;20.016;2023-02-15T01:38:13;101.75;;;42.50;;
54464;SDS011;40374;49.480;20.016;2023-02-15T01:40:41;74.20;;;33.05;;
54464;SDS011;40374;49.480;20.016;2023-02-15T01:43:11;67.10;;;26.77;;
54464;SDS011;40374;49.480;20.016;2023-02-15T01:45:39;58.38;;;26.13;;
54464;SDS011;40374;49.480;20.016;2023-02-15T01:50:46;75.70;;;27.02;;
54464;SDS011;40374;49.480;20.016;2023-02-15T01:55:58;82.88;;;33.75;;
54464;SDS011;40374;49.480;20.016;2023-02-15T01:58:27;92.65;;;38.13;;
54464;SDS011;40374;49.480;20.016;2023-02-15T02:00:56;105.85;;;41.67;;
54464;SDS011;40374;49.480;20.016;2023-02-15T02:06:12;83.00;;;34.27;;
54464;SDS011;40374;49.480;20.016;2023-02-15T02:08:40;62.88;;;26.80;;
54464;SDS011;40374;49.480;20.016;2023-02-15T02:11:12;74.88;;;27.88;;
54464;SDS011;40374;49.480;20.016;2023-02-15T02:13:40;63.90;;;24.88;;
54464;SDS011;40374;49.480;20.016;2023-02-15T02:21:29;56.00;;;26.15;;
54464;SDS011;40374;49.480;20.016;2023-02-15T02:32:14;79.32;;;29.45;;
54464;SDS011;40374;49.480;20.016;2023-02-15T02:34:47;71.65;;;28.63;;
54464;SDS011;40374;49.480;20.016;2023-02-15T02:45:00;77.00;;;28.52;;
54464;SDS011;40374;49.480;20.016;2023-02-15T02:47:31;82.00;;;27.92;;
54464;SDS011;40374;49.480;20.016;2023-02-15T02:50:01;76.90;;;28.55;;
54464;SDS011;40374;49.480;20.016;2023-02-15T02:55:03;69.72;;;26.38;;
54464;SDS011;40374;49.480;20.016;2023-02-15T02:57:32;82.25;;;27.13;;
54464;SDS011;40374;49.480;20.016;2023-02-15T03:00:01;79.85;;;26.67;;
54464;SDS011;40374;49.480;20.016;2023-02-15T03:02:31;79.72;;;29.23;;
54464;SDS011;40374;49.480;20.016;2023-02-15T03:05:00;75.90;;;27.90;;
54464;SDS011;40374;49.480;20.016;2023-02-15T03:07:30;85.22;;;30.67;;
54464;SDS011;40374;49.480;20.016;2023-02-15T03:10:00;84.72;;;30.10;;
54464;SDS011;40374;49.480;20.016;2023-02-15T03:12:32;79.97;;;27.30;;
54464;SDS011;40374;49.480;20.016;2023-02-15T03:15:07;87.78;;;30.60;;
54464;SDS011;40374;49.480;20.016;2023-02-15T03:20:07;81.25;;;26.20;;
54464;SDS011;40374;49.480;20.016;2023-02-15T03:25:25;71.57;;;26.58;;
54464;SDS011;40374;49.480;20.016;2023-02-15T03:27:55;73.82;;;26.75;;
54464;SDS011;40374;49.480;20.016;2023-02-15T03:30:24;70.65;;;25.55;;
54464;SDS011;40374;49.480;20.016;2023-02-15T03:32:54;77.40;;;27.63;;
54464;SDS011;40374;49.480;20.016;2023-02-15T03:35:23;80.78;;;29.15;;
54464;SDS011;40374;49.480;20.016;2023-02-15T03:37:53;75.50;;;27.33;;
54464;SDS011;40374;49.480;20.016;2023-02-15T03:40:23;86.63;;;29.45;;
54464;SDS011;40374;49.480;20.016;2023-02-15T03:45:42;87.22;;;35.17;;
54464;SDS011;40374;49.480;20.016;2023-02-15T03:48:25;92.68;;;32.25;;
54464;SDS011;40374;49.480;20.016;2023-02-15T03:50:54;84.50;;;30.33;;
54464;SDS011;40374;49.480;20.016;2023-02-15T03:53:42;77.18;;;27.20;;
54464;SDS011;40374;49.480;20.016;2023-02-15T03:56:10;82.18;;;26.48;;
54464;SDS011;40374;49.480;20.016;2023-02-15T03:58:37;71.47;;;25.60;;
54464;SDS011;40374;49.480;20.016;2023-02-15T04:01:25;84.10;;;26.08;;
54464;SDS011;40374;49.480;20.016;2023-02-15T04:04:15;89.60;;;28.15;;
54464;SDS011;40374;49.480;20.016;2023-02-15T04:06:43;83.68;;;29.05;;
54464;SDS011;40374;49.480;20.016;2023-02-15T04:09:11;85.72;;;28.75;;
54464;SDS011;40374;49.480;20.016;2023-02-15T04:11:57;86.95;;;29.55;;
54464;SDS011;40374;49.480;20.016;2023-02-15T04:14:24;98.13;;;28.80;;
54464;SDS011;40374;49.480;20.016;2023-02-15T04:17:10;81.65;;;30.40;;
54464;SDS011;40374;49.480;20.016;2023-02-15T04:19:37;101.47;;;30.17;;
54464;SDS011;40374;49.480;20.016;2023-02-15T04:22:23;101.55;;;30.92;;
54464;SDS011;40374;49.480;20.016;2023-02-15T04:25:09;90.53;;;28.77;;
54464;SDS011;40374;49.480;20.016;2023-02-15T04:27:38;100.25;;;29.23;;
54464;SDS011;40374;49.480;20.016;2023-02-15T04:30:05;109.85;;;31.77;;
54464;SDS011;40374;49.480;20.016;2023-02-15T04:32:33;121.68;;;34.65;;
54464;SDS011;40374;49.480;20.016;2023-02-15T04:35:01;111.78;;;34.30;;
54464;SDS011;40374;49.480;20.016;2023-02-15T04:37:28;100.68;;;30.20;;
54464;SDS011;40374;49.480;20.016;2023-02-15T04:39:55;120.32;;;34.85;;
54464;SDS011;40374;49.480;20.016;2023-02-15T04:42:23;107.43;;;33.10;;
54464;SDS011;40374;49.480;20.016;2023-02-15T04:44:50;112.88;;;31.77;;
54464;SDS011;40374;49.480;20.016;2023-02-15T04:47:17;123.72;;;34.30;;
54464;SDS011;40374;49.480;20.016;2023-02-15T04:49:44;123.70;;;34.42;;
54464;SDS011;40374;49.480;20.016;2023-02-15T04:52:12;125.40;;;33.05;;
54464;SDS011;40374;49.480;20.016;2023-02-15T04:54:39;109.28;;;32.55;;
54464;SDS011;40374;49.480;20.016;2023-02-15T04:57:07;98.15;;;31.00;;
54464;SDS011;40374;49.480;20.016;2023-02-15T04:59:34;113.88;;;32.25;;
54464;SDS011;40374;49.480;20.016;2023-02-15T05:02:01;123.88;;;31.45;;
54464;SDS011;40374;49.480;20.016;2023-02-15T05:04:28;117.85;;;34.25;;
54464;SDS011;40374;49.480;20.016;2023-02-15T05:06:56;132.48;;;32.70;;
54464;SDS011;40374;49.480;20.016;2023-02-15T05:09:23;115.07;;;30.10;;
54464;SDS011;40374;49.480;20.016;2023-02-15T05:11:50;130.77;;;30.90;;
54464;SDS011;40374;49.480;20.016;2023-02-15T05:14:17;146.68;;;33.08;;
54464;SDS011;40374;49.480;20.016;2023-02-15T05:16:45;155.30;;;33.63;;
54464;SDS011;40374;49.480;20.016;2023-02-15T05:19:12;199.80;;;50.00;;
54464;SDS011;40374;49.480;20.016;2023-02-15T05:21:39;120.47;;;33.50;;
54464;SDS011;40374;49.480;20.016;2023-02-15T05:24:06;126.60;;;31.00;;
54464;SDS011;40374;49.480;20.016;2023-02-15T05:26:52;144.70;;;37.50;;
54464;SDS011;40374;49.480;20.016;2023-02-15T05:29:38;141.10;;;33.38;;
54464;SDS011;40374;49.480;20.016;2023-02-15T05:32:05;161.50;;;40.92;;
54464;SDS011;40374;49.480;20.016;2023-02-15T05:34:32;192.88;;;46.50;;
54464;SDS011;40374;49.480;20.016;2023-02-15T05:37:00;168.88;;;47.85;;
54464;SDS011;40374;49.480;20.016;2023-02-15T05:39:27;237.52;;;66.40;;
54464;SDS011;40374;49.480;20.016;2023-02-15T05:41:54;157.35;;;32.42;;
54464;SDS011;40374;49.480;20.016;2023-02-15T05:44:21;174.50;;;27.52;;
54464;SDS011;40374;49.480;20.016;2023-02-15T05:46:48;264.70;;;32.90;;
54464;SDS011;40374;49.480;20.016;2023-02-15T05:49:16;157.95;;;27.58;;
54464;SDS011;40374;49.480;20.016;2023-02-15T05:51:43;185.90;;;37.22;;
54464;SDS011;40374;49.480;20.016;2023-02-15T05:54:10;174.60;;;40.97;;
54464;SDS011;40374;49.480;20.016;2023-02-15T05:56:37;193.68;;;42.42;;
54464;SDS011;40374;49.480;20.016;2023-02-15T05:59:04;153.98;;;37.55;;
54464;SDS011;40374;49.480;20.016;2023-02-15T06:01:32;181.88;;;40.95;;
54464;SDS011;40374;49.480;20.016;2023-02-15T06:03:59;190.63;;;37.47;;
54464;SDS011;40374;49.480;20.016;2023-02-15T06:06:26;195.90;;;36.55;;
54464;SDS011;40374;49.480;20.016;2023-02-15T06:08:53;154.88;;;35.40;;
54464;SDS011;40374;49.480;20.016;2023-02-15T06:11:21;177.55;;;34.53;;
54464;SDS011;40374;49.480;20.016;2023-02-15T06:13:48;167.25;;;30.42;;
54464;SDS011;40374;49.480;20.016;2023-02-15T06:16:15;166.65;;;35.05;;
54464;SDS011;40374;49.480;20.016;2023-02-15T06:18:43;121.15;;;30.80;;
54464;SDS011;40374;49.480;20.016;2023-02-15T06:21:10;154.55;;;27.13;;
54464;SDS011;40374;49.480;20.016;2023-02-15T06:23:37;132.35;;;26.05;;
54464;SDS011;40374;49.480;20.016;2023-02-15T06:26:05;148.50;;;34.08;;
54464;SDS011;40374;49.480;20.016;2023-02-15T06:28:32;168.00;;;38.45;;
54464;SDS011;40374;49.480;20.016;2023-02-15T06:30:59;152.10;;;34.88;;
54464;SDS011;40374;49.480;20.016;2023-02-15T06:33:26;112.57;;;26.42;;
54464;SDS011;40374;49.480;20.016;2023-02-15T06:35:54;121.93;;;29.15;;
54464;SDS011;40374;49.480;20.016;2023-02-15T06:38:21;120.65;;;28.20;;
54464;SDS011;40374;49.480;20.016;2023-02-15T06:40:48;137.23;;;28.83;;
54464;SDS011;40374;49.480;20.016;2023-02-15T06:43:15;118.72;;;31.52;;
54464;SDS011;40374;49.480;20.016;2023-02-15T06:45:43;135.38;;;30.05;;
54464;SDS011;40374;49.480;20.016;2023-02-15T06:48:10;121.53;;;28.08;;
54464;SDS011;40374;49.480;20.016;2023-02-15T06:50:38;120.47;;;29.20;;
54464;SDS011;40374;49.480;20.016;2023-02-15T06:53:05;153.10;;;31.10;;
54464;SDS011;40374;49.480;20.016;2023-02-15T06:55:32;129.95;;;27.40;;
54464;SDS011;40374;49.480;20.016;2023-02-15T06:57:59;133.65;;;30.02;;
54464;SDS011;40374;49.480;20.016;2023-02-15T07:00:27;131.50;;;27.17;;
54464;SDS011;40374;49.480;20.016;2023-02-15T07:02:54;134.05;;;25.70;;
54464;SDS011;40374;49.480;20.016;2023-02-15T07:05:25;138.73;;;30.67;;
54464;SDS011;40374;49.480;20.016;2023-02-15T07:07:58;173.98;;;29.10;;
54464;SDS011;40374;49.480;20.016;2023-02-15T07:10:26;225.50;;;32.53;;
54464;SDS011;40374;49.480;20.016;2023-02-15T07:12:53;270.73;;;35.42;;
54464;SDS011;40374;49.480;20.016;2023-02-15T07:15:21;217.38;;;34.70;;
54464;SDS011;40374;49.480;20.016;2023-02-15T07:17:48;167.13;;;33.78;;
54464;SDS011;40374;49.480;20.016;2023-02-15T07:20:18;214.00;;;30.60;;
54464;SDS011;40374;49.480;20.016;2023-02-15T07:22:46;153.05;;;34.58;;
54464;SDS011;40374;49.480;20.016;2023-02-15T07:25:13;276.95;;;36.28;;
54464;SDS011;40374;49.480;20.016;2023-02-15T07:27:40;185.27;;;34.10;;
54464;SDS011;40374;49.480;20.016;2023-02-15T07:30:09;142.43;;;33.85;;
54464;SDS011;40374;49.480;20.016;2023-02-15T07:32:36;134.82;;;34.28;;
54464;SDS011;40374;49.480;20.016;2023-02-15T07:35:24;167.25;;;34.03;;
54464;SDS011;40374;49.480;20.016;2023-02-15T07:37:51;159.32;;;40.00;;
54464;SDS011;40374;49.480;20.016;2023-02-15T07:40:20;135.82;;;35.70;;
54464;SDS011;40374;49.480;20.016;2023-02-15T07:42:50;150.48;;;35.67;;
54464;SDS011;40374;49.480;20.016;2023-02-15T07:45:20;127.25;;;34.42;;
54464;SDS011;40374;49.480;20.016;2023-02-15T07:47:48;151.07;;;39.40;;
54464;SDS011;40374;49.480;20.016;2023-02-15T07:50:15;135.73;;;38.92;;
54464;SDS011;40374;49.480;20.016;2023-02-15T07:52:42;99.35;;;28.00;;
54464;SDS011;40374;49.480;20.016;2023-02-15T07:55:10;100.55;;;31.05;;
54464;SDS011;40374;49.480;20.016;2023-02-15T07:57:46;103.18;;;28.17;;
54464;SDS011;40374;49.480;20.016;2023-02-15T08:00:14;98.28;;;28.13;;
54464;SDS011;40374;49.480;20.016;2023-02-15T08:02:47;92.20;;;27.40;;
54464;SDS011;40374;49.480;20.016;2023-02-15T08:05:14;85.53;;;26.10;;
54464;SDS011;40374;49.480;20.016;2023-02-15T08:07:43;92.32;;;26.75;;
54464;SDS011;40374;49.480;20.016;2023-02-15T08:10:11;86.22;;;24.63;;
54464;SDS011;40374;49.480;20.016;2023-02-15T08:12:58;100.57;;;30.95;;
54464;SDS011;40374;49.480;20.016;2023-02-15T08:15:25;88.80;;;26.95;;
54464;SDS011;40374;49.480;20.016;2023-02-15T08:17:52;75.97;;;26.17;;
54464;SDS011;40374;49.480;20.016;2023-02-15T08:20:20;90.38;;;26.75;;
54464;SDS011;40374;49.480;20.016;2023-02-15T08:22:47;83.57;;;25.80;;
54464;SDS011;40374;49.480;20.016;2023-02-15T08:25:14;74.72;;;25.38;;
54464;SDS011;40374;49.480;20.016;2023-02-15T08:27:41;93.93;;;29.23;;
54464;SDS011;40374;49.480;20.016;2023-02-15T08:30:09;79.45;;;26.33;;
54464;SDS011;40374;49.480;20.016;2023-02-15T08:32:36;104.70;;;32.88;;
54464;SDS011;40374;49.480;20.016;2023-02-15T08:35:04;124.03;;;37.97;;
54464;SDS011;40374;49.480;20.016;2023-02-15T08:37:31;89.15;;;28.63;;
54464;SDS011;40374;49.480;20.016;2023-02-15T08:39:58;88.75;;;30.95;;
54464;SDS011;40374;49.480;20.016;2023-02-15T08:42:25;75.85;;;25.38;;
54464;SDS011;40374;49.480;20.016;2023-02-15T08:44:53;85.40;;;30.05;;
54464;SDS011;40374;49.480;20.016;2023-02-15T08:47:20;81.30;;;28.13;;
54464;SDS011;40374;49.480;20.016;2023-02-15T08:49:47;88.38;;;28.55;;
54464;SDS011;40374;49.480;20.016;2023-02-15T08:52:14;87.25;;;30.15;;
54464;SDS011;40374;49.480;20.016;2023-02-15T08:54:42;84.88;;;27.80;;
54464;SDS011;40374;49.480;20.016;2023-02-15T08:57:09;95.15;;;32.65;;
54464;SDS011;40374;49.480;20.016;2023-02-15T08:59:37;88.85;;;29.50;;
54464;SDS011;40374;49.480;20.016;2023-02-15T09:02:04;95.68;;;33.63;;
54464;SDS011;40374;49.480;20.016;2023-02-15T09:04:32;78.80;;;29.83;;
54464;SDS011;40374;49.480;20.016;2023-02-15T09:06:59;73.22;;;26.75;;
54464;SDS011;40374;49.480;20.016;2023-02-15T09:09:26;65.43;;;25.75;;
54464;SDS011;40374;49.480;20.016;2023-02-15T09:11:53;67.32;;;25.63;;
54464;SDS011;40374;49.480;20.016;2023-02-15T09:14:26;76.30;;;24.88;;
54464;SDS011;40374;49.480;20.016;2023-02-15T09:16:53;88.18;;;28.05;;
54464;SDS011;40374;49.480;20.016;2023-02-15T09:19:21;68.70;;;24.98;;
54464;SDS011;40374;49.480;20.016;2023-02-15T09:21:49;76.18;;;26.77;;
54464;SDS011;40374;49.480;20.016;2023-02-15T09:24:17;84.38;;;27.13;;
54464;SDS011;40374;49.480;20.016;2023-02-15T09:26:45;76.57;;;28.88;;
54464;SDS011;40374;49.480;20.016;2023-02-15T09:29:13;71.32;;;28.52;;
54464;SDS011;40374;49.480;20.016;2023-02-15T09:31:44;66.18;;;27.17;;
54464;SDS011;40374;49.480;20.016;2023-02-15T09:34:13;78.88;;;28.10;;
54464;SDS011;40374;49.480;20.016;2023-02-15T09:36:40;75.60;;;29.70;;
54464;SDS011;40374;49.480;20.016;2023-02-15T09:39:09;80.57;;;28.55;;
54464;SDS011;40374;49.480;20.016;2023-02-15T09:52:26;70.78;;;29.98;;
54464;SDS011;40374;49.480;20.016;2023-02-15T09:57:30;70.95;;;27.80;;
54464;SDS011;40374;49.480;20.016;2023-02-15T11:07:15;40.88;;;19.75;;
54464;SDS011;40374;49.480;20.016;2023-02-15T11:09:49;44.03;;;21.65;;
54464;SDS011;40374;49.480;20.016;2023-02-15T11:12:22;46.00;;;20.92;;
54464;SDS011;40374;49.480;20.016;2023-02-15T11:17:42;43.65;;;22.50;;
54464;SDS011;40374;49.480;20.016;2023-02-15T11:22:50;49.25;;;26.27;;
54464;SDS011;40374;49.480;20.016;2023-02-15T11:25:25;52.42;;;25.77;;
54464;SDS011;40374;49.480;20.016;2023-02-15T11:27:57;49.80;;;24.38;;
54464;SDS011;40374;49.480;20.016;2023-02-15T11:30:28;52.42;;;26.15;;
54464;SDS011;40374;49.480;20.016;2023-02-15T11:33:12;50.78;;;25.38;;
54464;SDS011;40374;49.480;20.016;2023-02-15T11:35:53;54.38;;;27.52;;
54464;SDS011;40374;49.480;20.016;2023-02-15T11:38:39;67.50;;;32.58;;
54464;SDS011;40374;49.480;20.016;2023-02-15T11:41:11;63.45;;;31.67;;
54464;SDS011;40374;49.480;20.016;2023-02-15T11:43:49;57.20;;;30.50;;
54464;SDS011;40374;49.480;20.016;2023-02-15T11:46:23;60.35;;;29.38;;
54464;SDS011;40374;49.480;20.016;2023-02-15T11:48:51;58.80;;;31.40;;
54464;SDS011;40374;49.480;20.016;2023-02-15T11:51:20;53.75;;;26.85;;
54464;SDS011;40374;49.480;20.016;2023-02-15T11:53:50;56.83;;;30.02;;
54464;SDS011;40374;49.480;20.016;2023-02-15T11:56:20;50.72;;;27.88;;
54464;SDS011;40374;49.480;20.016;2023-02-15T11:58:52;46.78;;;27.23;;
54464;SDS011;40374;49.480;20.016;2023-02-15T12:01:41;54.58;;;29.38;;
54464;SDS011;40374;49.480;20.016;2023-02-15T12:07:24;60.60;;;30.95;;
54464;SDS011;40374;49.480;20.016;2023-02-15T12:12:41;51.53;;;29.50;;
54464;SDS011;40374;49.480;20.016;2023-02-15T12:15:09;53.95;;;30.50;;
54464;SDS011;40374;49.480;20.016;2023-02-15T12:17:39;46.30;;;26.20;;
54464;SDS011;40374;49.480;20.016;2023-02-15T12:20:20;34.47;;;20.02;;
54464;SDS011;40374;49.480;20.016;2023-02-15T12:23:12;35.10;;;20.00;;
54464;SDS011;40374;49.480;20.016;2023-02-15T12:25:41;26.30;;;17.00;;
54464;SDS011;40374;49.480;20.016;2023-02-15T12:28:35;23.83;;;15.23;;
54464;SDS011;40374;49.480;20.016;2023-02-15T12:34:00;29.58;;;18.38;;
54464;SDS011;40374;49.480;20.016;2023-02-15T12:36:40;26.33;;;16.70;;
54464;SDS011;40374;49.480;20.016;2023-02-15T12:39:20;23.95;;;15.52;;
54464;SDS011;40374;49.480;20.016;2023-02-15T12:44:23;25.33;;;16.65;;
54464;SDS011;40374;49.480;20.016;2023-02-15T12:46:59;27.30;;;17.60;;
54464;SDS011;40374;49.480;20.016;2023-02-15T12:49:36;27.90;;;18.38;;
54464;SDS011;40374;49.480;20.016;2023-02-15T12:52:05;25.15;;;16.55;;
54464;SDS011;40374;49.480;20.016;2023-02-15T12:54:51;27.67;;;17.20;;
54464;SDS011;40374;49.480;20.016;2023-02-15T12:59:58;30.13;;;18.85;;
54464;SDS011;40374;49.480;20.016;2023-02-15T13:02:51;30.90;;;19.08;;
54464;SDS011;40374;49.480;20.016;2023-02-15T13:05:32;30.42;;;19.13;;
54464;SDS011;40374;49.480;20.016;2023-02-15T13:08:09;31.38;;;19.25;;
54464;SDS011;40374;49.480;20.016;2023-02-15T13:13:31;28.70;;;19.23;;
54464;SDS011;40374;49.480;20.016;2023-02-15T13:16:02;30.42;;;20.02;;
54464;SDS011;40374;49.480;20.016;2023-02-15T13:18:35;29.60;;;19.90;;
54464;SDS011;40374;49.480;20.016;2023-02-15T13:21:15;32.78;;;20.17;;
54464;SDS011;40374;49.480;20.016;2023-02-15T13:23:51;28.95;;;18.85;;
54464;SDS011;40374;49.480;20.016;2023-02-15T13:26:25;31.08;;;19.48;;
54464;SDS011;40374;49.480;20.016;2023-02-15T13:28:57;32.85;;;20.05;;
54464;SDS011;40374;49.480;20.016;2023-02-15T13:31:32;31.67;;;19.17;;
54464;SDS011;40374;49.480;20.016;2023-02-15T13:34:03;29.05;;;18.30;;
54464;SDS011;40374;49.480;20.016;2023-02-15T13:36:44;35.22;;;19.55;;
54464;SDS011;40374;49.480;20.016;2023-02-15T13:42:04;33.83;;;19.33;;
54464;SDS011;40374;49.480;20.016;2023-02-15T13:44:50;33.33;;;18.98;;
54464;SDS011;40374;49.480;20.016;2023-02-15T13:52:56;35.95;;;19.85;;
54464;SDS011;40374;49.480;20.016;2023-02-15T13:58:17;36.85;;;18.27;;
54464;SDS011;40374;49.480;20.016;2023-02-15T14:01:10;35.83;;;18.70;;
54464;SDS011;40374;49.480;20.016;2023-02-15T14:09:48;51.03;;;23.70;;
54464;SDS011;40374;49.480;20.016;2023-02-15T14:15:54;69.53;;;27.33;;
54464;SDS011;40374;49.480;20.016;2023-02-15T14:21:27;77.70;;;36.13;;
54464;SDS011;40374;49.480;20.016;2023-02-15T14:24:02;71.60;;;34.92;;
54464;SDS011;40374;49.480;20.016;2023-02-15T14:32:33;76.80;;;37.03;;
54464;SDS011;40374;49.480;20.016;2023-02-15T14:35:16;81.95;;;33.55;;
54464;SDS011;40374;49.480;20.016;2023-02-15T14:37:57;64.32;;;27.67;;
54464;SDS011;40374;49.480;20.016;2023-02-15T14:41:03;59.90;;;27.05;;
54464;SDS011;40374;49.480;20.016;2023-02-15T14:46:38;60.63;;;28.95;;
54464;SDS011;40374;49.480;20.016;2023-02-15T14:49:19;73.68;;;31.63;;
54464;SDS011;40374;49.480;20.016;2023-02-15T14:51:54;107.78;;;41.08;;
54464;SDS011;40374;49.480;20.016;2023-02-15T15:02:15;78.40;;;36.05;;
54464;SDS011;40374;49.480;20.016;2023-02-15T15:05:06;86.70;;;37.92;;
54464;SDS011;40374;49.480;20.016;2023-02-15T15:07:54;84.90;;;37.83;;
54464;SDS011;40374;49.480;20.016;2023-02-15T15:12:56;203.57;;;87.68;;
54464;SDS011;40374;49.480;20.016;2023-02-15T15:18:07;233.95;;;107.72;;
54464;SDS011;40374;49.480;20.016;2023-02-15T15:25:46;159.35;;;71.88;;
54464;SDS011;40374;49.480;20.016;2023-02-15T15:37:02;139.93;;;60.33;;
54464;SDS011;40374;49.480;20.016;2023-02-15T15:42:48;148.48;;;62.75;;
54464;SDS011;40374;49.480;20.016;2023-02-15T15:51:13;216.52;;;85.93;;
54464;SDS011;40374;49.480;20.016;2023-02-15T15:53:47;175.13;;;73.25;;
54464;SDS011;40374;49.480;20.016;2023-02-15T15:56:43;166.52;;;70.47;;
54464;SDS011;40374;49.480;20.016;2023-02-15T15:59:12;149.68;;;61.80;;
54464;SDS011;40374;49.480;20.016;2023-02-15T16:01:45;146.93;;;61.33;;
54464;SDS011;40374;49.480;20.016;2023-02-15T16:04:22;145.63;;;63.30;;
54464;SDS011;40374;49.480;20.016;2023-02-15T16:06:53;151.38;;;61.92;;
54464;SDS011;40374;49.480;20.016;2023-02-15T16:09:25;126.70;;;53.53;;
54464;SDS011;40374;49.480;20.016;2023-02-15T16:11:54;118.75;;;49.45;;
54464;SDS011;40374;49.480;20.016;2023-02-15T16:14:30;110.60;;;42.60;;
54464;SDS011;40374;49.480;20.016;2023-02-15T16:17:00;92.18;;;37.88;;
54464;SDS011;40374;49.480;20.016;2023-02-15T16:19:32;73.35;;;29.23;;
54464;SDS011;40374;49.480;20.016;2023-02-15T16:22:03;82.40;;;31.70;;
54464;SDS011;40374;49.480;20.016;2023-02-15T16:27:12;70.72;;;27.38;;
54464;SDS011;40374;49.480;20.016;2023-02-15T16:32:54;80.20;;;31.90;;
54464;SDS011;40374;49.480;20.016;2023-02-15T16:35:53;80.18;;;30.10;;
54464;SDS011;40374;49.480;20.016;2023-02-15T16:43:38;142.77;;;54.97;;
54464;SDS011;40374;49.480;20.016;2023-02-15T16:46:10;157.93;;;65.20;;
54464;SDS011;40374;49.480;20.016;2023-02-15T16:48:42;106.50;;;42.80;;
54464;SDS011;40374;49.480;20.016;2023-02-15T16:51:23;132.25;;;56.70;;
54464;SDS011;40374;49.480;20.016;2023-02-15T16:53:54;143.73;;;57.13;;
54464;SDS011;40374;49.480;20.016;2023-02-15T16:56:24;309.85;;;117.28;;
54464;SDS011;40374;49.480;20.016;2023-02-15T16:58:55;270.90;;;106.95;;
54464;SDS011;40374;49.480;20.016;2023-02-15T17:01:29;271.73;;;102.22;;
54464;SDS011;40374;49.480;20.016;2023-02-15T17:04:12;246.70;;;99.07;;
54464;SDS011;40374;49.480;20.016;2023-02-15T17:07:04;252.70;;;106.20;;
54464;SDS011;40374;49.480;20.016;2023-02-15T17:09:32;247.82;;;100.00;;
54464;SDS011;40374;49.480;20.016;2023-02-15T17:12:00;338.45;;;124.45;;
54464;SDS011;40374;49.480;20.016;2023-02-15T17:14:30;393.92;;;148.27;;
54464;SDS011;40374;49.480;20.016;2023-02-15T17:17:12;331.73;;;130.40;;
54464;SDS011;40374;49.480;20.016;2023-02-15T17:19:47;338.90;;;131.07;;
54464;SDS011;40374;49.480;20.016;2023-02-15T17:22:23;346.48;;;133.45;;
54464;SDS011;40374;49.480;20.016;2023-02-15T17:24:58;331.83;;;137.15;;
54464;SDS011;40374;49.480;20.016;2023-02-15T17:27:29;335.38;;;135.25;;
54464;SDS011;40374;49.480;20.016;2023-02-15T17:30:03;331.42;;;135.43;;
54464;SDS011;40374;49.480;20.016;2023-02-15T17:32:54;346.02;;;134.93;;
54464;SDS011;40374;49.480;20.016;2023-02-15T17:35:29;332.80;;;130.25;;
54464;SDS011;40374;49.480;20.016;2023-02-15T17:38:02;345.38;;;133.38;;
54464;SDS011;40374;49.480;20.016;2023-02-15T17:40:32;372.85;;;139.05;;
54464;SDS011;40374;49.480;20.016;2023-02-15T17:43:01;393.58;;;145.40;;
54464;SDS011;40374;49.480;20.016;2023-02-15T17:45:35;384.30;;;141.85;;
54464;SDS011;40374;49.480;20.016;2023-02-15T17:48:09;427.17;;;156.98;;
54464;SDS011;40374;49.480;20.016;2023-02-15T17:50:47;393.65;;;152.88;;
54464;SDS011;40374;49.480;20.016;2023-02-15T17:53:15;342.70;;;129.15;;
54464;SDS011;40374;49.480;20.016;2023-02-15T17:55:44;328.35;;;128.07;;
54464;SDS011;40374;49.480;20.016;2023-02-15T17:58:13;421.88;;;167.63;;
54464;SDS011;40374;49.480;20.016;2023-02-15T18:00:46;407.95;;;160.00;;
54464;SDS011;40374;49.480;20.016;2023-02-15T18:03:43;426.60;;;172.07;;
54464;SDS011;40374;49.480;20.016;2023-02-15T18:06:32;407.15;;;160.52;;
54464;SDS011;40374;49.480;20.016;2023-02-15T18:09:21;394.95;;;157.95;;
54464;SDS011;40374;49.480;20.016;2023-02-15T18:12:26;398.05;;;166.10;;